Pagrindinis puslapis
METAR-TAF:

METAR-TAF

Oro uostai :

Oberpfaffenhofen, Vokietija

platuma: 48-05N, ilguma: 011-17E, Aukštis: 600 m

Dabartinis oras

Ataskaita buvo paskelbta 26 minutes, ne 03:50 UTC
Vėjas 15 kt iš Pietvakarių
Temperatūra 13°C
Drėgmė 44%
Slėgis 1017 hPa
Matomumas 10 km arba daugiau

METAR: EDMO 170350Z AUTO 23015KT 9999 // BKN210/// BKN240/// 13/01 Q1017

Laikas: 05:16 (04:16 UTC)


TAF: trūkstamas

Orai ataskaitas ir orų prognozės (METAR, TAF).

turimą stotys yra geltonos ir raudonos taškus žemėlapyje.

Perkelti pele per norėdami pamatyti stoties vardą.

Tada spustelėkite, norėdami matyti oro stebėjimo ir prognozės.

Norėdami pakeisti žemėlapį: spustelėkite ant žalios mygtukų su juodo kryžiaus žemyn,; žalią mygtuką su brūkšneliu, jei norite nutolinti; arba žalių rodyklių gretimoms žemėlapius.


METAR-TAF: